createdAt,value
2019-05-20T00:02:24.363Z,12.08
2019-05-20T00:04:43.942Z,12.06
2019-05-20T00:07:11.836Z,12.10
2019-05-20T00:09:41.672Z,12.13
2019-05-20T00:12:09.593Z,12.10
2019-05-20T00:14:37.618Z,12.10
2019-05-20T00:17:05.523Z,12.07
2019-05-20T00:19:34.380Z,12.05
2019-05-20T00:22:02.294Z,12.05
2019-05-20T00:24:30.268Z,12.08
2019-05-20T00:26:58.193Z,12.08
2019-05-20T00:29:31.952Z,12.06
2019-05-20T00:31:59.930Z,12.03
2019-05-20T00:34:35.157Z,12.04
2019-05-20T00:37:01.595Z,12.04
2019-05-20T00:39:29.560Z,12.05
2019-05-20T00:41:59.430Z,12.08
2019-05-20T00:44:27.374Z,12.05
2019-05-20T00:46:56.215Z,12.01
2019-05-20T00:49:24.137Z,11.97
2019-05-20T00:51:53.007Z,11.91
2019-05-20T00:54:21.145Z,11.89
2019-05-20T00:56:50.980Z,11.91
2019-05-20T00:59:19.821Z,11.90
2019-05-20T01:01:47.751Z,11.93
2019-05-20T01:04:16.554Z,11.86
2019-05-20T01:06:44.484Z,11.78
2019-05-20T01:09:13.346Z,11.73
2019-05-20T01:11:43.308Z,11.69
2019-05-20T01:14:11.254Z,11.65
2019-05-20T01:16:42.358Z,11.64
2019-05-20T01:19:11.232Z,11.67
2019-05-20T01:21:39.147Z,11.68
2019-05-20T01:24:09.061Z,11.69
2019-05-20T01:26:38.958Z,11.67
2019-05-20T01:29:06.918Z,11.69
2019-05-20T01:31:39.104Z,11.66
2019-05-20T01:34:13.388Z,11.66
2019-05-20T01:36:41.362Z,11.66
2019-05-20T01:39:09.279Z,11.64
2019-05-20T01:41:38.116Z,11.63
2019-05-20T01:44:05.999Z,11.62
2019-05-20T01:46:35.035Z,11.61
2019-05-20T01:49:08.524Z,11.64
2019-05-20T01:54:29.445Z,11.67
2019-05-20T01:56:59.369Z,11.70
2019-05-20T01:59:27.330Z,11.71
2019-05-20T02:02:02.739Z,11.71
2019-05-20T02:04:31.571Z,11.75
2019-05-20T02:06:59.496Z,11.76
2019-05-20T02:09:27.421Z,11.76
2019-05-20T02:11:57.346Z,11.74
2019-05-20T02:14:34.108Z,11.76
2019-05-20T02:17:05.787Z,11.77
2019-05-20T02:19:39.607Z,11.76
2019-05-20T02:22:07.519Z,11.78
2019-05-20T02:24:52.479Z,11.77
2019-05-20T02:27:20.653Z,11.81
2019-05-20T02:29:50.524Z,11.81
2019-05-20T02:32:18.440Z,11.78
2019-05-20T02:34:47.285Z,11.76
2019-05-20T02:37:15.247Z,11.78
2019-05-20T02:39:47.465Z,11.79
2019-05-20T02:42:15.427Z,11.80
2019-05-20T02:44:43.330Z,11.86
2019-05-20T02:47:11.253Z,11.86
2019-05-20T02:49:39.161Z,11.85
2019-05-20T02:52:07.252Z,11.84
2019-05-20T02:54:36.124Z,11.91
2019-05-20T02:57:05.941Z,11.92
2019-05-20T02:59:33.866Z,11.92
2019-05-20T03:02:06.103Z,11.91
2019-05-20T03:04:38.076Z,11.92
2019-05-20T03:07:06.411Z,11.88
2019-05-20T03:09:34.317Z,11.88
2019-05-20T03:12:02.249Z,11.95
2019-05-20T03:14:30.157Z,11.96
2019-05-20T03:16:58.110Z,12.00
2019-05-20T03:19:26.923Z,12.02
2019-05-20T03:21:54.849Z,11.96
2019-05-20T03:24:22.788Z,11.89
2019-05-20T03:26:50.747Z,11.98
2019-05-20T03:29:18.698Z,11.92
2019-05-20T03:31:46.614Z,11.93
2019-05-20T03:34:41.932Z,11.89
2019-05-20T03:36:46.374Z,11.87
2019-05-20T03:39:14.351Z,11.92
2019-05-20T03:41:44.206Z,11.90
2019-05-20T03:44:12.205Z,11.92
2019-05-20T03:46:41.953Z,11.92
2019-05-20T03:49:09.906Z,11.90
2019-05-20T03:51:38.770Z,11.95
2019-05-20T03:54:06.690Z,11.95
2019-05-20T03:56:35.592Z,11.92
2019-05-20T03:59:05.456Z,11.93
2019-05-20T04:01:33.392Z,11.94
2019-05-20T04:04:01.346Z,11.93
2019-05-20T04:06:29.291Z,11.92
2019-05-20T04:08:57.218Z,11.94
2019-05-20T04:11:27.136Z,11.95
2019-05-20T04:13:55.066Z,11.98
2019-05-20T04:16:22.978Z,11.92
2019-05-20T04:18:53.999Z,11.93
2019-05-20T04:21:18.896Z,11.96
2019-05-20T04:23:49.930Z,11.98
2019-05-20T04:26:30.300Z,11.97
2019-05-20T04:28:58.227Z,12.00
2019-05-20T04:31:26.223Z,11.96
2019-05-20T04:33:54.129Z,11.95
2019-05-20T04:36:23.094Z,11.93
2019-05-20T04:38:51.046Z,12.04
2019-05-20T04:41:18.953Z,12.00
2019-05-20T04:43:46.879Z,12.12
2019-05-20T04:46:18.514Z,12.15
2019-05-20T04:48:46.447Z,12.19
2019-05-20T04:51:18.777Z,12.21
2019-05-20T04:53:50.470Z,12.21
2019-05-20T04:56:20.310Z,12.19
2019-05-20T04:58:49.213Z,12.25
2019-05-20T05:01:17.142Z,12.17
2019-05-20T05:03:47.033Z,12.16
2019-05-20T05:06:18.803Z,12.15
2019-05-20T05:08:52.276Z,12.06
2019-05-20T05:11:39.141Z,12.02
2019-05-20T05:14:07.095Z,12.03
2019-05-20T05:16:35.885Z,12.01
2019-05-20T05:19:03.820Z,11.93
2019-05-20T05:21:35.502Z,11.94
2019-05-20T05:24:03.429Z,11.93
2019-05-20T05:26:33.225Z,12.01
2019-05-20T05:29:01.382Z,12.02
2019-05-20T05:31:40.333Z,12.02
2019-05-20T05:34:08.287Z,12.04
2019-05-20T05:36:47.737Z,12.06
2019-05-20T05:39:19.715Z,12.10
2019-05-20T05:41:47.618Z,12.05
2019-05-20T05:44:16.515Z,12.05
2019-05-20T05:46:51.412Z,12.02
2019-05-20T05:49:21.376Z,12.02
2019-05-20T05:51:49.308Z,12.01
2019-05-20T05:54:28.542Z,12.02
2019-05-20T05:56:56.480Z,11.98
2019-05-20T05:59:30.122Z,12.05
2019-05-20T06:01:59.041Z,12.04
2019-05-20T06:04:28.919Z,12.01
2019-05-20T06:07:13.803Z,12.08
2019-05-20T06:12:47.637Z,12.18
2019-05-20T06:15:15.623Z,12.19
2019-05-20T06:18:19.897Z,12.21
2019-05-20T06:20:50.244Z,12.21
2019-05-20T06:23:18.595Z,12.24
2019-05-20T06:28:25.293Z,12.33
2019-05-20T06:30:53.694Z,12.33
2019-05-20T06:33:22.041Z,12.38
2019-05-20T06:35:50.447Z,12.31
2019-05-20T06:40:57.083Z,12.40
2019-05-20T06:43:27.408Z,12.42
2019-05-20T06:45:55.791Z,12.38
2019-05-20T06:48:24.153Z,12.34
2019-05-20T06:50:52.546Z,12.34
2019-05-20T06:53:25.015Z,12.37
2019-05-20T06:55:53.387Z,12.34
2019-05-20T06:58:28.174Z,12.33
2019-05-20T07:00:56.542Z,12.34
2019-05-20T07:03:48.389Z,12.36
2019-05-20T07:06:44.681Z,12.22
2019-05-20T07:08:57.283Z,12.29
2019-05-20T07:11:25.670Z,12.17
2019-05-20T07:13:54.081Z,12.13
2019-05-20T07:18:56.733Z,12.14
2019-05-20T07:21:26.055Z,12.13
2019-05-20T07:23:54.416Z,12.16
2019-05-20T07:26:32.611Z,12.13
2019-05-20T07:29:00.972Z,12.11
2019-05-20T07:31:29.365Z,12.18
2019-05-20T07:33:57.731Z,12.20
2019-05-20T07:37:02.040Z,12.20
2019-05-20T07:39:34.381Z,12.20
2019-05-20T07:42:02.739Z,12.27
2019-05-20T07:44:31.096Z,12.27
2019-05-20T07:46:59.525Z,12.26
2019-05-20T07:49:29.781Z,12.37
2019-05-20T07:51:58.229Z,12.44
2019-05-20T07:54:29.670Z,12.53
2019-05-20T07:56:58.033Z,12.52
2019-05-20T07:59:47.340Z,12.53
2019-05-20T08:02:25.721Z,12.50
2019-05-20T08:04:54.135Z,12.70
2019-05-20T08:07:30.054Z,12.76
2019-05-20T08:09:55.915Z,12.85
2019-05-20T08:12:27.609Z,12.80
2019-05-20T08:15:15.430Z,12.80
2019-05-20T08:17:43.796Z,13.00
2019-05-20T08:20:13.166Z,12.96
2019-05-20T08:28:09.433Z,13.34
2019-05-20T08:30:37.807Z,13.32
2019-05-20T08:33:08.031Z,13.23
2019-05-20T08:35:44.062Z,13.19
2019-05-20T08:38:14.448Z,13.26
2019-05-20T08:40:48.115Z,13.18
2019-05-20T08:43:19.544Z,13.13
2019-05-20T08:48:49.612Z,13.24
2019-05-20T08:51:18.035Z,13.19
2019-05-20T08:54:00.414Z,13.37
2019-05-20T08:59:06.067Z,13.29
2019-05-20T09:01:36.321Z,13.37
2019-05-20T09:04:05.597Z,13.51
2019-05-20T09:06:47.918Z,13.54
2019-05-20T09:09:17.206Z,13.49
2019-05-20T09:11:59.189Z,13.44
2019-05-20T09:14:27.697Z,13.36
2019-05-20T09:19:47.383Z,13.30
2019-05-20T09:22:15.297Z,13.36
2019-05-20T09:24:43.889Z,13.40
2019-05-20T09:27:12.087Z,13.47
2019-05-20T09:29:40.473Z,13.44
2019-05-20T09:32:08.850Z,13.47
2019-05-20T09:34:38.114Z,13.39
2019-05-20T09:37:06.462Z,13.45
2019-05-20T09:39:36.739Z,13.47
2019-05-20T09:42:05.130Z,13.44
2019-05-20T09:47:07.774Z,13.46
2019-05-20T09:49:42.173Z,13.28
2019-05-20T09:52:10.545Z,13.24
2019-05-20T09:54:39.841Z,13.15
2019-05-20T09:57:08.204Z,13.22
2019-05-20T09:59:55.462Z,13.23
2019-05-20T10:02:32.825Z,13.28
2019-05-20T10:04:52.202Z,13.26
2019-05-20T10:07:20.562Z,13.35
2019-05-20T10:10:05.521Z,13.44
2019-05-20T10:12:46.003Z,13.52
2019-05-20T10:15:05.770Z,13.42
2019-05-20T10:17:37.632Z,13.57
2019-05-20T10:20:06.016Z,13.36
2019-05-20T10:25:11.620Z,13.45
2019-05-20T10:27:39.993Z,13.54
2019-05-20T10:30:08.385Z,13.74
2019-05-20T10:32:51.890Z,13.71
2019-05-20T10:35:20.251Z,14.04
2019-05-20T10:37:49.513Z,14.14
2019-05-20T10:40:17.862Z,14.02
2019-05-20T10:43:05.139Z,14.03
2019-05-20T10:48:08.891Z,14.26
2019-05-20T10:50:36.096Z,14.22
2019-05-20T10:53:04.460Z,14.10
2019-05-20T10:55:32.840Z,13.99
2019-05-20T10:58:02.085Z,14.08
2019-05-20T11:00:31.368Z,14.24
2019-05-20T11:05:38.976Z,13.86
2019-05-20T11:08:26.014Z,13.87
2019-05-20T11:10:55.302Z,14.10
2019-05-20T11:13:27.094Z,14.21
2019-05-20T11:15:55.470Z,14.25
2019-05-20T11:18:23.833Z,14.51
2019-05-20T11:23:31.886Z,14.32
2019-05-20T11:26:06.507Z,14.23
2019-05-20T11:28:34.816Z,14.34
2019-05-20T11:31:10.862Z,14.35
2019-05-20T11:33:40.162Z,14.14
2019-05-20T11:36:13.602Z,14.04
2019-05-20T11:38:42.077Z,14.03
2019-05-20T11:41:11.331Z,14.20
2019-05-20T11:46:16.007Z,14.17
2019-05-20T11:51:21.715Z,14.06
2019-05-20T11:53:50.070Z,13.79
2019-05-20T11:56:19.359Z,13.74
2019-05-20T11:58:47.705Z,13.72
2019-05-20T12:01:16.106Z,13.64
2019-05-20T12:03:49.747Z,13.51
2019-05-20T12:06:18.693Z,13.45
2019-05-20T12:08:47.550Z,13.39
2019-05-20T12:11:15.922Z,13.27
2019-05-20T12:13:59.295Z,13.20
2019-05-20T12:16:27.655Z,13.15
2019-05-20T12:18:56.038Z,13.10
2019-05-20T12:21:24.393Z,13.07
2019-05-20T12:23:52.746Z,13.05
2019-05-20T12:26:22.757Z,12.95
2019-05-20T12:28:51.403Z,12.90
2019-05-20T12:31:19.806Z,12.81
2019-05-20T12:33:48.140Z,12.94
2019-05-20T12:36:16.527Z,12.93
2019-05-20T12:38:46.786Z,12.94
2019-05-20T12:41:15.176Z,12.98
2019-05-20T12:43:44.932Z,12.95
2019-05-20T12:48:54.289Z,13.04
2019-05-20T12:51:22.654Z,13.09
2019-05-20T12:53:52.948Z,13.14
2019-05-20T12:56:26.905Z,12.93
2019-05-20T13:04:18.141Z,12.57
2019-05-20T13:06:46.529Z,12.44
2019-05-20T13:09:18.447Z,12.39
2019-05-20T13:11:47.757Z,12.33
2019-05-20T13:14:17.034Z,12.25
2019-05-20T13:16:45.808Z,12.18
2019-05-20T13:19:19.315Z,12.23
2019-05-20T13:21:47.678Z,12.22
2019-05-20T13:24:17.942Z,12.24
2019-05-20T13:26:46.345Z,12.16
2019-05-20T13:29:16.622Z,12.14
2019-05-20T13:31:45.021Z,12.19
2019-05-20T13:34:18.805Z,12.23
2019-05-20T13:36:46.888Z,12.26
2019-05-20T13:39:34.584Z,12.35
2019-05-20T13:42:07.287Z,12.46
2019-05-20T13:44:39.428Z,12.58
2019-05-20T13:47:07.316Z,12.62
2019-05-20T13:49:36.133Z,12.65
2019-05-20T13:55:07.371Z,12.66
2019-05-20T13:57:35.317Z,12.67
2019-05-20T14:00:06.961Z,12.71
2019-05-20T14:02:34.919Z,12.73
2019-05-20T14:05:06.234Z,12.72
2019-05-20T14:07:35.060Z,12.63
2019-05-20T14:10:09.844Z,12.54
2019-05-20T14:12:38.691Z,12.55
2019-05-20T14:15:09.054Z,12.58
2019-05-20T14:17:37.013Z,12.69
2019-05-20T14:20:06.835Z,12.68
2019-05-20T14:22:34.747Z,12.79
2019-05-20T14:25:05.076Z,12.93
2019-05-20T14:27:37.135Z,12.99
2019-05-20T14:30:10.646Z,13.13
2019-05-20T14:32:39.660Z,13.04
2019-05-20T14:35:08.460Z,13.18
2019-05-20T14:37:36.389Z,13.20
2019-05-20T14:42:44.381Z,13.19
2019-05-20T14:45:12.304Z,13.28
2019-05-20T14:47:40.211Z,13.32
2019-05-20T14:50:11.464Z,13.18
2019-05-20T14:52:39.396Z,13.19
2019-05-20T14:55:08.265Z,13.28
2019-05-20T14:57:36.165Z,13.23
2019-05-20T15:00:05.934Z,13.19
2019-05-20T15:02:33.965Z,13.13
2019-05-20T15:05:05.874Z,13.13
2019-05-20T15:07:35.379Z,13.16
2019-05-20T15:10:06.666Z,13.19
2019-05-20T15:12:34.636Z,13.21
2019-05-20T15:15:06.539Z,13.18
2019-05-20T15:17:35.992Z,13.30
2019-05-20T15:20:16.601Z,13.21
2019-05-20T15:22:44.505Z,13.25
2019-05-20T15:25:12.493Z,13.22
2019-05-20T15:27:41.412Z,13.21
2019-05-20T15:30:09.388Z,13.22
2019-05-20T15:32:38.282Z,13.22
2019-05-20T15:35:06.206Z,13.27
2019-05-20T15:37:42.011Z,13.21
2019-05-20T15:40:09.918Z,13.23
2019-05-20T15:42:37.853Z,13.21
2019-05-20T15:45:07.776Z,13.13
2019-05-20T15:47:35.742Z,12.97
2019-05-20T15:50:06.041Z,12.92
2019-05-20T15:52:32.596Z,12.79
2019-05-20T15:55:00.535Z,12.73
2019-05-20T15:57:28.492Z,12.64
2019-05-20T15:59:56.472Z,12.70
2019-05-20T16:02:31.880Z,12.63
2019-05-20T16:05:05.574Z,12.67
2019-05-20T16:07:33.497Z,12.64
2019-05-20T16:10:01.418Z,12.66
2019-05-20T16:12:34.241Z,12.67
2019-05-20T16:18:00.680Z,12.65
2019-05-20T16:20:33.324Z,12.61
2019-05-20T16:23:04.845Z,12.62
2019-05-20T16:25:33.564Z,12.65
2019-05-20T16:28:05.313Z,12.66
2019-05-20T16:30:35.361Z,12.66
2019-05-20T16:33:03.314Z,12.71
2019-05-20T16:35:31.519Z,12.66
2019-05-20T16:37:59.430Z,12.68
2019-05-20T16:40:27.366Z,12.59
2019-05-20T16:43:03.061Z,12.58
2019-05-20T16:45:31.014Z,12.58
2019-05-20T16:47:59.024Z,12.53
2019-05-20T16:50:26.904Z,12.53
2019-05-20T16:52:54.835Z,12.46
2019-05-20T16:55:22.788Z,12.39
2019-05-20T16:57:52.632Z,12.40
2019-05-20T17:00:31.261Z,12.37
2019-05-20T17:02:49.408Z,12.32
2019-05-20T17:05:20.818Z,12.33
2019-05-20T17:07:48.760Z,12.31
2019-05-20T17:10:20.045Z,12.30
2019-05-20T17:12:49.869Z,12.29
2019-05-20T17:15:21.509Z,12.30
2019-05-20T17:17:49.438Z,12.32
2019-05-20T17:20:20.759Z,12.29
2019-05-20T17:23:00.220Z,12.27
2019-05-20T17:25:28.202Z,12.26
2019-05-20T17:27:56.995Z,12.31
2019-05-20T17:30:24.913Z,12.30
2019-05-20T17:32:52.835Z,12.30
2019-05-20T17:35:20.744Z,12.31
2019-05-20T17:37:54.960Z,12.34
2019-05-20T17:40:20.663Z,12.34
2019-05-20T17:42:54.375Z,12.34
2019-05-20T17:45:22.302Z,12.33
2019-05-20T17:47:50.254Z,12.31
2019-05-20T17:50:18.175Z,12.31
2019-05-20T17:52:48.101Z,12.27
2019-05-20T17:55:20.851Z,12.27
2019-05-20T17:57:49.684Z,12.32
2019-05-20T18:00:26.013Z,12.28
2019-05-20T18:02:53.941Z,12.33
2019-05-20T18:05:21.892Z,12.31
2019-05-20T18:07:50.033Z,12.32
2019-05-20T18:10:21.874Z,12.31
2019-05-20T18:12:50.128Z,12.29
2019-05-20T18:15:21.306Z,12.28
2019-05-20T18:17:49.282Z,12.26
2019-05-20T18:20:17.181Z,12.22
2019-05-20T18:22:45.105Z,12.23
2019-05-20T18:25:13.029Z,12.23
2019-05-20T18:27:40.975Z,12.21
2019-05-20T18:30:12.522Z,12.23
2019-05-20T18:32:45.139Z,12.23
2019-05-20T18:35:17.711Z,12.24
2019-05-20T18:37:45.657Z,12.25
2019-05-20T18:40:30.639Z,12.25
2019-05-20T18:42:58.568Z,12.25
2019-05-20T18:45:32.516Z,12.28
2019-05-20T18:48:00.438Z,12.26
2019-05-20T18:50:45.499Z,12.28
2019-05-20T18:53:13.432Z,12.33
2019-05-20T18:55:44.924Z,12.37
2019-05-20T18:58:12.871Z,12.39
2019-05-20T19:00:45.129Z,12.35
2019-05-20T19:03:16.994Z,12.44
2019-05-20T19:05:58.185Z,12.44
2019-05-20T19:08:33.137Z,12.45
2019-05-20T19:11:02.844Z,12.46
2019-05-20T19:13:33.992Z,12.45
2019-05-20T19:16:01.969Z,12.40
2019-05-20T19:18:30.364Z,12.32
2019-05-20T19:21:03.027Z,12.31
2019-05-20T19:23:30.962Z,12.22
2019-05-20T19:26:03.641Z,12.15
2019-05-20T19:28:31.921Z,12.08
2019-05-20T19:31:03.983Z,12.04
2019-05-20T19:33:39.304Z,12.00
2019-05-20T19:36:07.218Z,12.02
2019-05-20T19:38:38.222Z,12.01
2019-05-20T19:41:06.992Z,11.91
2019-05-20T19:43:34.926Z,11.86
2019-05-20T19:46:02.889Z,11.84
2019-05-20T19:48:38.002Z,11.89
2019-05-20T19:51:05.904Z,11.84
2019-05-20T19:53:34.742Z,11.83
2019-05-20T19:56:03.607Z,11.78
2019-05-20T19:58:33.531Z,11.73
2019-05-20T20:01:02.386Z,11.65
2019-05-20T20:03:30.325Z,11.64
2019-05-20T20:06:00.147Z,11.58
2019-05-20T20:11:24.791Z,11.53
2019-05-20T20:13:53.612Z,11.50
2019-05-20T20:16:28.619Z,11.51
2019-05-20T20:18:57.459Z,11.54
2019-05-20T20:21:31.005Z,11.51
2019-05-20T20:24:00.439Z,11.51
2019-05-20T20:26:49.535Z,11.53
2019-05-20T20:29:17.554Z,11.57
2019-05-20T20:31:52.361Z,11.65
2019-05-20T20:34:32.232Z,11.68
2019-05-20T20:37:00.189Z,11.72
2019-05-20T20:39:34.377Z,11.77
2019-05-20T20:42:00.557Z,11.80
2019-05-20T20:44:40.005Z,11.83
2019-05-20T20:47:08.807Z,11.83
2019-05-20T20:49:49.877Z,11.87
2019-05-20T20:52:21.377Z,11.88
2019-05-20T20:54:49.322Z,11.84
2019-05-20T20:57:17.289Z,11.82
2019-05-20T20:59:50.481Z,11.80
2019-05-20T21:02:25.878Z,11.82
2019-05-20T21:04:54.709Z,11.82
2019-05-20T21:07:24.545Z,11.74
2019-05-20T21:09:52.520Z,11.74
2019-05-20T21:12:20.469Z,11.74
2019-05-20T21:14:50.409Z,11.69
2019-05-20T21:17:32.690Z,11.61
2019-05-20T21:20:00.611Z,11.64
2019-05-20T21:22:29.451Z,11.63
2019-05-20T21:24:59.289Z,11.58
2019-05-20T21:27:33.908Z,11.56
2019-05-20T21:30:01.886Z,11.54
2019-05-20T21:32:33.475Z,11.49
2019-05-20T21:35:13.922Z,11.47
2019-05-20T21:37:48.507Z,11.44
2019-05-20T21:40:17.346Z,11.40
2019-05-20T21:42:53.764Z,11.39
2019-05-20T21:45:21.709Z,11.37
2019-05-20T21:47:50.578Z,11.34
2019-05-20T21:50:18.492Z,11.34
2019-05-20T21:55:55.709Z,11.22
2019-05-20T21:58:58.593Z,11.16
2019-05-20T22:01:27.095Z,11.15
2019-05-20T22:04:00.037Z,11.13
2019-05-20T22:06:28.410Z,11.11
2019-05-20T22:08:57.717Z,11.10
2019-05-20T22:11:26.090Z,11.13
2019-05-20T22:13:54.463Z,11.17
2019-05-20T22:16:22.836Z,11.19
2019-05-20T22:18:51.180Z,11.19
2019-05-20T22:21:20.460Z,11.27
2019-05-20T22:23:51.646Z,11.32
2019-05-20T22:26:20.952Z,11.35
2019-05-20T22:28:50.221Z,11.37
2019-05-20T22:33:53.718Z,11.47
2019-05-20T22:36:23.084Z,11.50
2019-05-20T22:38:51.450Z,11.53
2019-05-20T22:41:20.768Z,11.54
2019-05-20T22:43:49.145Z,11.59
2019-05-20T22:46:17.512Z,11.61
2019-05-20T22:48:45.948Z,11.64
2019-05-20T22:51:17.665Z,11.67
2019-05-20T22:53:49.215Z,11.71
2019-05-20T22:56:17.641Z,11.73
2019-05-20T22:58:46.066Z,11.73
2019-05-20T23:01:15.299Z,11.73
2019-05-20T23:03:56.335Z,11.73
2019-05-20T23:06:18.214Z,11.74
2019-05-20T23:08:48.512Z,11.73
2019-05-20T23:11:26.893Z,11.72
2019-05-20T23:13:55.257Z,11.73
2019-05-20T23:16:23.612Z,11.73
2019-05-20T23:18:51.973Z,11.74
2019-05-20T23:23:54.578Z,11.75
2019-05-20T23:26:22.983Z,11.73
2019-05-20T23:28:51.388Z,11.72
2019-05-20T23:31:20.323Z,11.72
2019-05-20T23:33:48.681Z,11.71
2019-05-20T23:36:19.032Z,11.71
2019-05-20T23:38:47.401Z,11.70
2019-05-20T23:41:15.757Z,11.68
2019-05-20T23:43:44.155Z,11.68
2019-05-20T23:46:12.724Z,11.74
2019-05-20T23:48:41.994Z,11.74
2019-05-20T23:51:12.329Z,11.68
2019-05-20T23:53:42.667Z,11.64
2019-05-20T23:56:11.039Z,11.65
2019-05-20T23:58:39.431Z,11.63
